createdAt,value
2022-11-07T00:00:26.949Z,997.59
2022-11-07T00:01:26.974Z,997.60
2022-11-07T00:02:27.016Z,997.61
2022-11-07T00:03:26.905Z,997.56
2022-11-07T00:04:26.913Z,997.56
2022-11-07T00:05:26.867Z,997.56
2022-11-07T00:06:26.931Z,997.55
2022-11-07T00:07:26.846Z,997.60
2022-11-07T00:08:26.836Z,997.60
2022-11-07T00:09:26.819Z,997.54
2022-11-07T00:10:26.824Z,997.60
2022-11-07T00:11:26.847Z,997.63
2022-11-07T00:12:26.786Z,997.57
2022-11-07T00:13:26.776Z,997.59
2022-11-07T00:14:26.769Z,997.55
2022-11-07T00:15:26.769Z,997.53
2022-11-07T00:16:26.751Z,997.54
2022-11-07T00:17:26.717Z,997.55
2022-11-07T00:18:26.719Z,997.59
2022-11-07T00:19:26.697Z,997.58
2022-11-07T00:20:26.742Z,997.57
2022-11-07T00:21:26.666Z,997.60
2022-11-07T00:22:26.664Z,997.61
2022-11-07T00:23:26.677Z,997.59
2022-11-07T00:24:26.637Z,997.61
2022-11-07T00:25:26.607Z,997.64
2022-11-07T00:26:26.630Z,997.67
2022-11-07T00:27:26.628Z,997.68
2022-11-07T00:28:26.579Z,997.72
2022-11-07T00:29:26.566Z,997.65
2022-11-07T00:30:26.558Z,997.70
2022-11-07T00:31:26.545Z,997.74
2022-11-07T00:32:26.528Z,997.74
2022-11-07T00:33:26.519Z,997.72
2022-11-07T00:34:26.497Z,997.69
2022-11-07T00:35:26.486Z,997.67
2022-11-07T00:36:26.501Z,997.71
2022-11-07T00:37:26.456Z,997.74
2022-11-07T00:38:26.447Z,997.71
2022-11-07T00:39:26.437Z,997.72
2022-11-07T00:40:26.428Z,997.74
2022-11-07T00:41:26.443Z,997.72
2022-11-07T00:42:26.403Z,997.74
2022-11-07T00:43:26.378Z,997.73
2022-11-07T00:44:26.370Z,997.77
2022-11-07T00:45:26.347Z,997.79
2022-11-07T00:46:26.357Z,997.81
2022-11-07T00:47:26.328Z,997.81
2022-11-07T00:48:26.319Z,997.79
2022-11-07T00:49:26.308Z,997.86
2022-11-07T00:50:26.289Z,997.84
2022-11-07T00:51:26.284Z,997.86
2022-11-07T00:52:26.257Z,997.86
2022-11-07T00:53:26.266Z,997.86
2022-11-07T00:54:26.238Z,997.90
2022-11-07T00:55:26.215Z,997.91
2022-11-07T00:56:26.227Z,997.92
2022-11-07T00:57:26.200Z,997.93
2022-11-07T00:58:26.188Z,997.91
2022-11-07T00:59:26.167Z,997.92
2022-11-07T01:00:26.163Z,997.96
2022-11-07T01:01:26.292Z,998.03
2022-11-07T01:02:26.290Z,998.01
2022-11-07T01:03:26.119Z,997.99
2022-11-07T01:04:26.110Z,997.99
2022-11-07T01:05:26.086Z,998.05
2022-11-07T01:06:26.098Z,998.10
2022-11-07T01:07:26.066Z,998.05
2022-11-07T01:08:26.052Z,998.09
2022-11-07T01:09:26.037Z,998.06
2022-11-07T01:10:26.028Z,998.07
2022-11-07T01:11:26.036Z,998.10
2022-11-07T01:12:25.999Z,998.07
2022-11-07T01:13:25.989Z,998.09
2022-11-07T01:14:25.982Z,998.06
2022-11-07T01:15:25.949Z,998.08
2022-11-07T01:16:25.970Z,998.09
2022-11-07T01:17:25.929Z,998.05
2022-11-07T01:18:25.922Z,998.09
2022-11-07T01:19:25.907Z,998.04
2022-11-07T01:20:25.898Z,998.01
2022-11-07T01:21:25.889Z,997.96
2022-11-07T01:22:25.873Z,997.99
2022-11-07T01:23:25.850Z,997.97
2022-11-07T01:24:25.840Z,997.95
2022-11-07T01:25:25.829Z,997.95
2022-11-07T01:26:25.838Z,997.91
2022-11-07T01:27:25.788Z,997.90
2022-11-07T01:28:25.790Z,997.85
2022-11-07T01:29:25.778Z,997.89
2022-11-07T01:30:25.772Z,997.84
2022-11-07T01:31:25.769Z,997.88
2022-11-07T01:32:25.748Z,997.87
2022-11-07T01:33:25.721Z,997.91
2022-11-07T01:34:25.712Z,997.91
2022-11-07T01:35:25.699Z,997.92
2022-11-07T01:36:25.698Z,997.93
2022-11-07T01:37:25.667Z,997.96
2022-11-07T01:38:25.658Z,997.92
2022-11-07T01:39:25.640Z,997.91
2022-11-07T01:40:25.642Z,997.84
2022-11-07T01:41:25.786Z,997.87
2022-11-07T01:42:25.608Z,997.91
2022-11-07T01:43:25.580Z,997.92
2022-11-07T01:44:25.580Z,997.91
2022-11-07T01:45:25.560Z,997.86
2022-11-07T01:46:25.569Z,997.82
2022-11-07T01:47:25.531Z,997.92
2022-11-07T01:48:25.530Z,997.95
2022-11-07T01:49:25.517Z,997.99
2022-11-07T01:50:25.500Z,997.97
2022-11-07T01:51:25.499Z,997.90
2022-11-07T01:52:25.479Z,997.88
2022-11-07T01:53:25.460Z,997.95
2022-11-07T01:54:25.449Z,997.87
2022-11-07T01:55:25.439Z,997.86
2022-11-07T01:56:25.440Z,997.82
2022-11-07T01:57:25.407Z,997.85
2022-11-07T01:58:25.399Z,997.90
2022-11-07T01:59:25.387Z,997.89
2022-11-07T02:00:25.371Z,997.86
2022-11-07T02:01:25.485Z,997.89
2022-11-07T02:02:25.416Z,997.91
2022-11-07T02:03:25.321Z,997.90
2022-11-07T02:04:25.320Z,997.83
2022-11-07T02:05:25.313Z,997.88
2022-11-07T02:06:25.310Z,997.84
2022-11-07T02:07:25.273Z,997.83
2022-11-07T02:08:25.272Z,997.82
2022-11-07T02:09:25.249Z,997.75
2022-11-07T02:10:25.243Z,997.84
2022-11-07T02:11:25.250Z,997.86
2022-11-07T02:12:25.223Z,997.83
2022-11-07T02:13:25.193Z,997.89
2022-11-07T02:14:25.181Z,997.86
2022-11-07T02:15:25.177Z,997.88
2022-11-07T02:16:25.161Z,997.84
2022-11-07T02:17:25.153Z,997.82
2022-11-07T02:18:25.135Z,997.85
2022-11-07T02:19:25.122Z,997.82
2022-11-07T02:20:25.116Z,997.78
2022-11-07T02:21:25.092Z,997.77
2022-11-07T02:22:25.100Z,997.78
2022-11-07T02:23:25.073Z,997.75
2022-11-07T02:24:25.051Z,997.77
2022-11-07T02:25:25.044Z,997.77
2022-11-07T02:26:25.031Z,997.78
2022-11-07T02:27:25.042Z,997.75
2022-11-07T02:28:25.002Z,997.76
2022-11-07T02:29:24.996Z,997.76
2022-11-07T02:30:24.960Z,997.74
2022-11-07T02:31:24.963Z,997.75
2022-11-07T02:32:24.960Z,997.72
2022-11-07T02:33:24.942Z,997.74
2022-11-07T02:34:24.921Z,997.80
2022-11-07T02:35:24.913Z,997.83
2022-11-07T02:36:24.923Z,997.83
2022-11-07T02:37:24.884Z,997.84
2022-11-07T02:38:24.874Z,997.86
2022-11-07T02:39:24.852Z,997.86
2022-11-07T02:40:24.841Z,997.90
2022-11-07T02:41:24.834Z,997.86
2022-11-07T02:42:24.852Z,997.88
2022-11-07T02:43:24.805Z,997.84
2022-11-07T02:44:24.783Z,997.88
2022-11-07T02:45:24.774Z,997.88
2022-11-07T02:46:24.763Z,997.87
2022-11-07T02:47:24.774Z,997.78
2022-11-07T02:48:24.736Z,997.79
2022-11-07T02:49:24.723Z,997.85
2022-11-07T02:50:24.703Z,997.89
2022-11-07T02:51:24.693Z,997.90
2022-11-07T02:52:24.684Z,997.90
2022-11-07T02:53:24.664Z,997.93
2022-11-07T02:54:24.653Z,997.89
2022-11-07T02:55:24.641Z,997.88
2022-11-07T02:56:24.637Z,997.90
2022-11-07T02:57:24.632Z,997.94
2022-11-07T02:58:24.683Z,997.93
2022-11-07T02:59:27.167Z,997.94
2022-11-07T03:00:24.586Z,997.94
2022-11-07T03:01:24.666Z,998.00
2022-11-07T03:02:24.737Z,998.01
2022-11-07T03:03:24.527Z,997.99
2022-11-07T03:04:24.523Z,997.98
2022-11-07T03:05:24.503Z,997.93
2022-11-07T03:06:24.516Z,997.92
2022-11-07T03:07:24.493Z,997.91
2022-11-07T03:08:24.473Z,997.92
2022-11-07T03:09:24.451Z,997.91
2022-11-07T03:10:24.434Z,997.86
2022-11-07T03:11:24.424Z,997.86
2022-11-07T03:12:24.434Z,997.87
2022-11-07T03:13:24.401Z,997.87
2022-11-07T03:14:24.418Z,997.91
2022-11-07T03:15:24.370Z,997.90
2022-11-07T03:16:24.355Z,997.92
2022-11-07T03:17:24.362Z,997.94
2022-11-07T03:18:24.338Z,997.95
2022-11-07T03:19:24.323Z,997.93
2022-11-07T03:20:24.304Z,997.89
2022-11-07T03:21:24.291Z,997.82
2022-11-07T03:22:24.304Z,997.82
2022-11-07T03:23:24.263Z,997.87
2022-11-07T03:24:24.253Z,997.85
2022-11-07T03:25:24.244Z,997.84
2022-11-07T03:26:24.234Z,997.83
2022-11-07T03:27:24.232Z,997.87
2022-11-07T03:28:24.203Z,997.95
2022-11-07T03:29:24.183Z,997.97
2022-11-07T03:30:24.203Z,998.01
2022-11-07T03:31:24.154Z,998.00
2022-11-07T03:32:24.172Z,998.02
2022-11-07T03:33:24.133Z,998.02
2022-11-07T03:34:24.123Z,998.01
2022-11-07T03:35:24.109Z,997.95
2022-11-07T03:36:24.096Z,997.95
2022-11-07T03:37:24.094Z,997.92
2022-11-07T03:38:24.076Z,997.91
2022-11-07T03:39:25.972Z,997.94
2022-11-07T03:40:24.042Z,997.95
2022-11-07T03:41:24.034Z,997.91
2022-11-07T03:42:24.032Z,997.91
2022-11-07T03:43:24.004Z,997.88
2022-11-07T03:44:23.994Z,997.88
2022-11-07T03:45:23.975Z,997.86
2022-11-07T03:46:23.963Z,997.86
2022-11-07T03:47:23.965Z,997.86
2022-11-07T03:48:23.949Z,997.93
2022-11-07T03:49:23.916Z,997.96
2022-11-07T03:50:23.914Z,997.96
2022-11-07T03:51:23.886Z,998.00
2022-11-07T03:52:23.909Z,998.02
2022-11-07T03:53:25.834Z,998.05
2022-11-07T03:54:23.864Z,998.07
2022-11-07T03:55:23.835Z,998.06
2022-11-07T03:56:23.824Z,998.06
2022-11-07T03:57:23.813Z,998.06
2022-11-07T03:58:23.794Z,998.06
2022-11-07T03:59:23.783Z,998.08
2022-11-07T04:00:23.769Z,998.08
2022-11-07T04:01:23.858Z,998.06
2022-11-07T04:02:23.884Z,998.07
2022-11-07T04:03:23.735Z,998.04
2022-11-07T04:04:23.730Z,998.03
2022-11-07T04:05:23.704Z,998.02
2022-11-07T04:06:23.694Z,998.02
2022-11-07T04:07:23.696Z,998.01
2022-11-07T04:08:23.675Z,998.07
2022-11-07T04:09:23.644Z,998.09
2022-11-07T04:10:23.640Z,998.09
2022-11-07T04:11:23.625Z,998.06
2022-11-07T04:12:23.624Z,998.09
2022-11-07T04:13:23.594Z,998.08
2022-11-07T04:14:23.584Z,998.07
2022-11-07T04:15:23.574Z,998.10
2022-11-07T04:16:23.554Z,998.10
2022-11-07T04:17:23.574Z,998.12
2022-11-07T04:18:23.536Z,998.15
2022-11-07T04:19:23.523Z,998.11
2022-11-07T04:20:23.531Z,998.12
2022-11-07T04:21:23.497Z,998.09
2022-11-07T04:22:23.488Z,998.12
2022-11-07T04:23:23.497Z,998.10
2022-11-07T04:24:23.467Z,998.11
2022-11-07T04:25:23.435Z,998.10
2022-11-07T04:26:23.435Z,998.07
2022-11-07T04:27:23.436Z,998.08
2022-11-07T04:28:23.406Z,998.11
2022-11-07T04:29:23.385Z,998.13
2022-11-07T04:30:23.384Z,998.09
2022-11-07T04:31:23.377Z,998.07
2022-11-07T04:32:23.385Z,998.06
2022-11-07T04:33:23.335Z,998.03
2022-11-07T04:34:23.336Z,998.02
2022-11-07T04:35:23.316Z,998.03
2022-11-07T04:36:23.305Z,998.05
2022-11-07T04:37:23.306Z,998.05
2022-11-07T04:38:23.283Z,998.00
2022-11-07T04:39:23.256Z,997.99
2022-11-07T04:40:23.264Z,998.00
2022-11-07T04:41:23.226Z,998.02
2022-11-07T04:42:23.217Z,998.05
2022-11-07T04:43:23.226Z,998.09
2022-11-07T04:44:23.204Z,998.09
2022-11-07T04:45:23.177Z,998.11
2022-11-07T04:46:23.181Z,998.12
2022-11-07T04:47:23.159Z,998.10
2022-11-07T04:48:23.167Z,998.12
2022-11-07T04:49:23.127Z,998.10
2022-11-07T04:50:23.126Z,998.08
2022-11-07T04:51:23.110Z,998.12
2022-11-07T04:52:23.097Z,998.10
2022-11-07T04:53:23.094Z,998.12
2022-11-07T04:54:23.066Z,998.10
2022-11-07T04:55:23.046Z,998.12
2022-11-07T04:56:23.044Z,998.13
2022-11-07T04:57:23.016Z,998.14
2022-11-07T04:58:23.036Z,998.15
2022-11-07T04:59:22.996Z,998.13
2022-11-07T05:00:22.989Z,998.12
2022-11-07T05:01:23.017Z,998.14
2022-11-07T05:02:23.062Z,998.12
2022-11-07T05:03:22.956Z,998.09
2022-11-07T05:04:22.926Z,998.11
2022-11-07T05:05:22.916Z,998.16
2022-11-07T05:06:22.906Z,998.17
2022-11-07T05:07:22.886Z,998.15
2022-11-07T05:08:22.906Z,998.16
2022-11-07T05:09:22.866Z,998.17
2022-11-07T05:10:22.856Z,998.18
2022-11-07T05:11:22.835Z,998.16
2022-11-07T05:12:22.817Z,998.16
2022-11-07T05:13:22.807Z,998.22
2022-11-07T05:14:22.820Z,998.28
2022-11-07T05:15:22.789Z,998.25
2022-11-07T05:16:22.776Z,998.29
2022-11-07T05:17:27.726Z,998.29
2022-11-07T05:18:23.757Z,998.29
2022-11-07T05:19:22.768Z,998.34
2022-11-07T05:20:22.718Z,998.34
2022-11-07T05:21:22.697Z,998.35
2022-11-07T05:22:22.695Z,998.31
2022-11-07T05:23:22.687Z,998.37
2022-11-07T05:24:22.687Z,998.40
2022-11-07T05:25:22.650Z,998.34
2022-11-07T05:26:22.646Z,998.37
2022-11-07T05:27:22.631Z,998.33
2022-11-07T05:28:31.132Z,998.38
2022-11-07T05:29:23.616Z,998.40
2022-11-07T05:30:22.588Z,998.38
2022-11-07T05:31:22.577Z,998.38
2022-11-07T05:32:22.559Z,998.36
2022-11-07T05:33:22.548Z,998.40
2022-11-07T05:34:22.547Z,998.43
2022-11-07T05:35:22.517Z,998.38
2022-11-07T05:36:22.518Z,998.37
2022-11-07T05:37:22.487Z,998.38
2022-11-07T05:38:22.478Z,998.39
2022-11-07T05:39:22.478Z,998.38
2022-11-07T05:40:22.472Z,998.37
2022-11-07T05:41:22.440Z,998.44
2022-11-07T05:42:22.430Z,998.38
2022-11-07T05:43:22.407Z,998.36
2022-11-07T05:44:22.420Z,998.38
2022-11-07T05:45:22.382Z,998.39
2022-11-07T05:46:22.368Z,998.42
2022-11-07T05:47:22.357Z,998.39
2022-11-07T05:48:22.348Z,998.36
2022-11-07T05:49:22.348Z,998.42
2022-11-07T05:50:22.319Z,998.41
2022-11-07T05:51:22.297Z,998.37
2022-11-07T05:52:22.288Z,998.37
2022-11-07T05:53:22.377Z,998.38
2022-11-07T05:54:22.277Z,998.38
2022-11-07T05:55:22.248Z,998.37
2022-11-07T05:56:22.239Z,998.40
2022-11-07T05:57:22.218Z,998.40
2022-11-07T05:58:22.217Z,998.35
2022-11-07T05:59:22.210Z,998.36
2022-11-07T06:00:22.188Z,998.36
2022-11-07T06:01:22.210Z,998.41
2022-11-07T06:02:22.241Z,998.40
2022-11-07T06:03:22.159Z,998.38
2022-11-07T06:04:22.147Z,998.41
2022-11-07T06:05:24.354Z,998.40
2022-11-07T06:06:22.097Z,998.42
2022-11-07T06:07:22.078Z,998.44
2022-11-07T06:08:22.068Z,998.44
2022-11-07T06:09:22.088Z,998.44
2022-11-07T06:10:22.047Z,998.44
2022-11-07T06:11:22.038Z,998.42
2022-11-07T06:12:22.028Z,998.42
2022-11-07T06:13:22.008Z,998.42
2022-11-07T06:14:22.010Z,998.42
2022-11-07T06:15:21.979Z,998.40
2022-11-07T06:16:21.979Z,998.46
2022-11-07T06:17:21.949Z,998.45
2022-11-07T06:18:21.970Z,998.48
2022-11-07T06:19:21.933Z,998.49
2022-11-07T06:20:21.925Z,998.46
2022-11-07T06:21:21.897Z,998.55
2022-11-07T06:22:21.889Z,998.53
2022-11-07T06:23:21.878Z,998.52
2022-11-07T06:24:21.858Z,998.58
2022-11-07T06:25:21.848Z,998.56
2022-11-07T06:26:21.828Z,998.60
2022-11-07T06:27:21.809Z,998.56
2022-11-07T06:28:21.829Z,998.55
2022-11-07T06:29:21.797Z,998.55
2022-11-07T06:30:21.798Z,998.55
2022-11-07T06:31:21.759Z,998.57
2022-11-07T06:32:21.750Z,998.62
2022-11-07T06:33:21.740Z,998.59
2022-11-07T06:34:21.990Z,998.66
2022-11-07T06:35:21.710Z,998.62
2022-11-07T06:36:21.699Z,998.64
2022-11-07T06:37:21.681Z,998.63
2022-11-07T06:38:21.678Z,998.67
2022-11-07T06:39:21.670Z,998.71
2022-11-07T06:40:21.640Z,998.68
2022-11-07T06:41:21.630Z,998.66
2022-11-07T06:42:21.612Z,998.72
2022-11-07T06:43:21.590Z,998.70
2022-11-07T06:44:21.628Z,998.70
2022-11-07T06:45:21.573Z,998.70
2022-11-07T06:46:21.560Z,998.75
2022-11-07T06:47:21.547Z,998.75
2022-11-07T06:48:21.542Z,998.79
2022-11-07T06:49:21.509Z,998.77
2022-11-07T06:50:21.510Z,998.74
2022-11-07T06:51:21.488Z,998.75
2022-11-07T06:52:21.479Z,998.77
2022-11-07T06:53:21.469Z,998.71
2022-11-07T06:54:21.469Z,998.73
2022-11-07T06:55:21.439Z,998.72
2022-11-07T06:56:21.439Z,998.70
2022-11-07T06:57:21.412Z,998.72
2022-11-07T06:58:21.400Z,998.76
2022-11-07T06:59:21.399Z,998.76
2022-11-07T07:00:22.044Z,998.78
2022-11-07T07:01:22.250Z,998.81
2022-11-07T07:02:44.240Z,998.81
2022-11-07T07:03:22.362Z,998.84
2022-11-07T07:04:21.341Z,998.81
2022-11-07T07:05:21.475Z,998.83
2022-11-07T07:06:21.308Z,998.81
2022-11-07T07:07:21.282Z,998.85
2022-11-07T07:08:21.271Z,998.88
2022-11-07T07:09:21.270Z,998.80
2022-11-07T07:10:21.249Z,998.93
2022-11-07T07:11:21.231Z,998.89
2022-11-07T07:12:21.220Z,998.90
2022-11-07T07:13:21.200Z,998.92
2022-11-07T07:14:21.190Z,998.94
2022-11-07T07:15:21.181Z,998.90
2022-11-07T07:16:21.162Z,998.94
2022-11-07T07:17:21.171Z,998.95
2022-11-07T07:18:21.143Z,998.94
2022-11-07T07:19:21.141Z,998.98
2022-11-07T07:20:21.110Z,998.91
2022-11-07T07:21:21.109Z,998.89
2022-11-07T07:22:21.082Z,998.93
2022-11-07T07:23:21.481Z,998.98
2022-11-07T07:24:21.089Z,998.95
2022-11-07T07:25:21.057Z,998.94
2022-11-07T07:26:21.040Z,998.94
2022-11-07T07:27:21.020Z,998.93
2022-11-07T07:28:21.022Z,998.94
2022-11-07T07:29:21.011Z,998.96
2022-11-07T07:30:20.981Z,998.97
2022-11-07T07:31:20.970Z,998.98
2022-11-07T07:32:21.754Z,998.96
2022-11-07T07:33:21.286Z,998.96
2022-11-07T07:34:20.931Z,998.95
2022-11-07T07:35:20.911Z,998.99
2022-11-07T07:36:21.210Z,998.98
2022-11-07T07:37:20.882Z,998.98
2022-11-07T07:38:20.879Z,998.95
2022-11-07T07:39:20.876Z,998.98
2022-11-07T07:40:20.821Z,998.98
2022-11-07T07:41:20.850Z,999.00
2022-11-07T07:42:20.821Z,999.06
2022-11-07T07:43:20.833Z,999.02
2022-11-07T07:44:20.811Z,999.04
2022-11-07T07:45:20.792Z,999.03
2022-11-07T07:46:20.763Z,999.06
2022-11-07T07:47:20.765Z,999.06
2022-11-07T07:48:20.742Z,999.04
2022-11-07T07:49:20.742Z,999.04
2022-11-07T07:50:20.722Z,999.08
2022-11-07T07:51:20.712Z,999.06
2022-11-07T07:52:21.132Z,999.06
2022-11-07T07:53:21.002Z,999.08
2022-11-07T07:54:21.148Z,999.09
2022-11-07T07:55:21.091Z,999.10
2022-11-07T07:56:20.742Z,999.11
2022-11-07T07:57:20.633Z,999.16
2022-11-07T07:58:20.611Z,999.16
2022-11-07T07:59:20.599Z,999.18
2022-11-07T08:00:20.611Z,999.20
2022-11-07T08:01:20.597Z,999.21
2022-11-07T08:02:20.602Z,999.20
2022-11-07T08:03:20.561Z,999.16
2022-11-07T08:04:20.531Z,999.18
2022-11-07T08:05:20.520Z,999.19
2022-11-07T08:06:20.501Z,999.18
2022-11-07T08:07:20.483Z,999.20
2022-11-07T08:08:20.489Z,999.17
2022-11-07T08:09:20.463Z,999.18
2022-11-07T08:10:41.348Z,999.18
2022-11-07T08:11:21.444Z,999.16
2022-11-07T08:12:20.414Z,999.20
2022-11-07T08:13:20.423Z,999.19
2022-11-07T08:14:20.413Z,999.20
2022-11-07T08:15:20.392Z,999.16
2022-11-07T08:16:20.373Z,999.21
2022-11-07T08:17:20.363Z,999.21
2022-11-07T08:18:20.342Z,999.19
2022-11-07T08:19:20.373Z,999.17
2022-11-07T08:20:20.320Z,999.22
2022-11-07T08:21:20.304Z,999.23
2022-11-07T08:22:20.292Z,999.26
2022-11-07T08:23:20.547Z,999.22
2022-11-07T08:24:20.283Z,999.22
2022-11-07T08:25:20.254Z,999.23
2022-11-07T08:26:20.235Z,999.25
2022-11-07T08:27:20.234Z,999.27
2022-11-07T08:28:20.221Z,999.30
2022-11-07T08:29:20.223Z,999.31
2022-11-07T08:30:20.193Z,999.32
2022-11-07T08:31:20.172Z,999.34
2022-11-07T08:32:20.160Z,999.31
2022-11-07T08:33:20.406Z,999.31
2022-11-07T08:34:20.133Z,999.33
2022-11-07T08:35:20.124Z,999.31
2022-11-07T08:36:20.092Z,999.30
2022-11-07T08:37:20.103Z,999.30
2022-11-07T08:38:20.101Z,999.34
2022-11-07T08:39:20.066Z,999.34
2022-11-07T08:40:20.044Z,999.36
2022-11-07T08:41:22.409Z,999.34
2022-11-07T08:42:20.022Z,999.31
2022-11-07T08:43:20.039Z,999.33
2022-11-07T08:44:20.001Z,999.34
2022-11-07T08:45:19.984Z,999.33
2022-11-07T08:46:19.976Z,999.29
2022-11-07T08:47:19.972Z,999.35
2022-11-07T08:48:19.943Z,999.32
2022-11-07T08:49:19.943Z,999.32
2022-11-07T08:50:19.935Z,999.32
2022-11-07T08:51:19.914Z,999.35
2022-11-07T08:52:19.902Z,999.34
2022-11-07T08:53:20.246Z,999.35
2022-11-07T08:54:19.891Z,999.36
2022-11-07T08:55:19.867Z,999.30
2022-11-07T08:56:19.846Z,999.32
2022-11-07T08:57:19.836Z,999.32
2022-11-07T08:58:19.841Z,999.35
2022-11-07T08:59:19.813Z,999.33
2022-11-07T09:00:19.792Z,999.33
2022-11-07T09:01:19.854Z,999.40
2022-11-07T09:04:20.788Z,999.38
2022-11-07T09:05:19.740Z,999.35
2022-11-07T09:06:19.713Z,999.35
2022-11-07T09:07:19.703Z,999.35
2022-11-07T09:08:19.700Z,999.38
2022-11-07T09:09:19.688Z,999.36
2022-11-07T09:10:19.656Z,999.42
2022-11-07T09:11:19.655Z,999.40
2022-11-07T09:12:19.635Z,999.42
2022-11-07T09:13:19.851Z,999.40
2022-11-07T09:14:19.616Z,999.42
2022-11-07T09:15:19.597Z,999.41
2022-11-07T09:16:19.583Z,999.43
2022-11-07T09:17:19.576Z,999.46
2022-11-07T09:18:19.609Z,999.43
2022-11-07T09:19:19.546Z,999.45
2022-11-07T09:20:19.526Z,999.47
2022-11-07T09:21:22.675Z,999.49
2022-11-07T09:22:19.507Z,999.51
2022-11-07T09:23:19.890Z,999.53
2022-11-07T09:24:19.476Z,999.54
2022-11-07T09:25:19.467Z,999.53
2022-11-07T09:26:19.435Z,999.51
2022-11-07T09:27:19.444Z,999.50
2022-11-07T09:28:19.447Z,999.50
2022-11-07T09:29:19.414Z,999.54
2022-11-07T09:30:19.397Z,999.50
2022-11-07T09:31:19.378Z,999.52
2022-11-07T09:32:43.406Z,999.54
2022-11-07T09:33:20.387Z,999.52
2022-11-07T09:34:19.344Z,999.55
2022-11-07T09:35:19.336Z,999.52
2022-11-07T09:36:19.325Z,999.52
2022-11-07T09:37:19.316Z,999.52
2022-11-07T09:38:19.286Z,999.56
2022-11-07T09:39:19.307Z,999.53
2022-11-07T09:40:19.263Z,999.56
2022-11-07T09:41:19.256Z,999.54
2022-11-07T09:42:19.237Z,999.57
2022-11-07T09:43:19.523Z,999.54
2022-11-07T09:44:19.236Z,999.56
2022-11-07T09:45:19.207Z,999.60
2022-11-07T09:46:19.194Z,999.60
2022-11-07T09:47:19.187Z,999.59
2022-11-07T09:48:19.154Z,999.65
2022-11-07T09:49:19.177Z,999.59
2022-11-07T09:50:19.136Z,999.61
2022-11-07T09:51:19.143Z,999.56
2022-11-07T09:52:19.108Z,999.60
2022-11-07T09:53:19.106Z,999.59
2022-11-07T09:54:19.106Z,999.61
2022-11-07T09:55:19.076Z,999.59
2022-11-07T09:56:19.096Z,999.63
2022-11-07T09:57:19.047Z,999.61
2022-11-07T09:58:19.027Z,999.62
2022-11-07T09:59:19.038Z,999.62
2022-11-07T10:00:18.997Z,999.60
2022-11-07T10:01:19.087Z,999.60
2022-11-07T10:02:19.067Z,999.67
2022-11-07T10:03:19.243Z,999.67
2022-11-07T10:04:27.058Z,999.65
2022-11-07T10:05:19.948Z,999.66
2022-11-07T10:06:24.008Z,999.72
2022-11-07T10:07:19.909Z,999.69
2022-11-07T10:08:18.897Z,999.74
2022-11-07T10:09:18.900Z,999.74
2022-11-07T10:10:18.867Z,999.77
2022-11-07T10:11:18.865Z,999.74
2022-11-07T10:12:18.848Z,999.76
2022-11-07T10:13:19.102Z,999.80
2022-11-07T10:14:18.847Z,999.78
2022-11-07T10:15:18.808Z,999.81
2022-11-07T10:16:18.808Z,999.76
2022-11-07T10:17:18.779Z,999.79
2022-11-07T10:18:18.768Z,999.81
2022-11-07T10:19:18.779Z,999.82
2022-11-07T10:20:23.496Z,999.80
2022-11-07T10:22:19.708Z,999.82
2022-11-07T10:23:18.896Z,999.82
2022-11-07T10:24:18.718Z,999.79
2022-11-07T10:25:18.688Z,999.81
2022-11-07T10:26:18.659Z,999.80
2022-11-07T10:27:18.657Z,999.84
2022-11-07T10:28:18.637Z,999.82
2022-11-07T10:29:18.649Z,999.84
2022-11-07T10:30:18.627Z,999.83
2022-11-07T10:31:18.608Z,999.82
2022-11-07T10:32:18.586Z,999.85
2022-11-07T10:33:18.713Z,999.80
2022-11-07T10:34:18.578Z,999.80
2022-11-07T10:35:18.549Z,999.82
2022-11-07T10:36:18.530Z,999.82
2022-11-07T10:37:18.544Z,999.85
2022-11-07T10:38:18.542Z,999.80
2022-11-07T10:39:18.512Z,999.80
2022-11-07T10:40:18.530Z,999.79
2022-11-07T10:41:18.470Z,999.77
2022-11-07T10:42:18.448Z,999.79
2022-11-07T10:43:18.763Z,999.81
2022-11-07T10:44:18.460Z,999.79
2022-11-07T10:45:18.409Z,999.80
2022-11-07T10:46:18.472Z,999.82
2022-11-07T10:47:18.380Z,999.80
2022-11-07T10:48:18.732Z,999.86
2022-11-07T10:49:18.360Z,999.84
2022-11-07T10:50:18.405Z,999.84
2022-11-07T10:51:18.347Z,999.88
2022-11-07T10:52:18.330Z,999.88
2022-11-07T10:53:18.309Z,999.85
2022-11-07T10:54:21.918Z,999.85
2022-11-07T10:55:18.298Z,999.88
2022-11-07T10:56:18.270Z,999.93
2022-11-07T10:57:18.254Z,999.91
2022-11-07T10:58:18.438Z,999.87
2022-11-07T10:59:18.232Z,999.86
2022-11-07T11:00:18.229Z,999.86
2022-11-07T11:01:18.216Z,999.84
2022-11-07T11:02:18.231Z,999.86
2022-11-07T11:03:18.159Z,999.89
2022-11-07T11:04:18.170Z,999.85
2022-11-07T11:05:18.170Z,999.87
2022-11-07T11:06:18.142Z,999.85
2022-11-07T11:07:18.129Z,999.92
2022-11-07T11:08:18.809Z,999.89
2022-11-07T11:09:18.100Z,999.92
2022-11-07T11:10:18.115Z,999.86
2022-11-07T11:11:18.071Z,999.89
2022-11-07T11:12:18.050Z,999.85
2022-11-07T11:13:18.043Z,999.81
2022-11-07T11:14:18.038Z,999.80
2022-11-07T11:15:18.032Z,999.77
2022-11-07T11:16:18.010Z,999.78
2022-11-07T11:17:18.073Z,999.76
2022-11-07T11:18:18.578Z,999.78
2022-11-07T11:19:17.971Z,999.73
2022-11-07T11:20:17.970Z,999.77
2022-11-07T11:21:17.941Z,999.75
2022-11-07T11:22:17.933Z,999.72
2022-11-07T11:23:18.327Z,999.72
2022-11-07T11:24:17.901Z,999.68
2022-11-07T11:25:17.912Z,999.70
2022-11-07T11:26:17.868Z,999.63
2022-11-07T11:27:17.855Z,999.64
2022-11-07T11:28:18.220Z,999.65
2022-11-07T11:29:17.842Z,999.64
2022-11-07T11:30:17.835Z,999.61
2022-11-07T11:31:17.825Z,999.61
2022-11-07T11:32:17.810Z,999.60
2022-11-07T11:33:18.037Z,999.57
2022-11-07T11:34:17.783Z,999.62
2022-11-07T11:35:17.781Z,999.57
2022-11-07T11:36:17.743Z,999.54
2022-11-07T11:37:17.722Z,999.53
2022-11-07T11:38:17.723Z,999.54
2022-11-07T11:39:17.842Z,999.53
2022-11-07T11:40:17.708Z,999.53
2022-11-07T11:41:17.682Z,999.49
2022-11-07T11:42:17.662Z,999.47
2022-11-07T11:43:17.860Z,999.37
2022-11-07T11:44:17.647Z,999.42
2022-11-07T11:45:17.641Z,999.48
2022-11-07T11:46:17.612Z,999.40
2022-11-07T11:47:17.591Z,999.44
2022-11-07T11:48:17.587Z,999.43
2022-11-07T11:49:17.570Z,999.41
2022-11-07T11:50:17.563Z,999.42
2022-11-07T11:51:17.560Z,999.45
2022-11-07T11:52:17.532Z,999.49
2022-11-07T11:53:18.111Z,999.51
2022-11-07T11:54:17.522Z,999.50
2022-11-07T11:55:17.494Z,999.48
2022-11-07T11:56:17.511Z,999.45
2022-11-07T11:57:17.474Z,999.46
2022-11-07T11:58:17.453Z,999.45
2022-11-07T11:59:17.452Z,999.44
2022-11-07T12:00:17.424Z,999.45
2022-11-07T12:01:17.454Z,999.46
2022-11-07T12:02:17.422Z,999.47
2022-11-07T12:03:17.787Z,999.50
2022-11-07T12:04:17.393Z,999.52
2022-11-07T12:05:17.362Z,999.51
2022-11-07T12:06:17.364Z,999.52
2022-11-07T12:07:17.331Z,999.50
2022-11-07T12:08:17.333Z,999.48
2022-11-07T12:09:18.453Z,999.52
2022-11-07T12:10:17.294Z,999.48
2022-11-07T12:11:17.295Z,999.50
2022-11-07T12:12:17.273Z,999.50
2022-11-07T12:13:17.666Z,999.50
2022-11-07T12:14:17.255Z,999.52
2022-11-07T12:15:17.223Z,999.53
2022-11-07T12:16:17.232Z,999.53
2022-11-07T12:17:17.214Z,999.50
2022-11-07T12:18:17.196Z,999.47
2022-11-07T12:19:17.173Z,999.49
2022-11-07T12:20:17.165Z,999.44
2022-11-07T12:21:17.162Z,999.47
2022-11-07T12:22:17.145Z,999.44
2022-11-07T12:23:17.505Z,999.41
2022-11-07T12:24:17.123Z,999.44
2022-11-07T12:25:17.146Z,999.40
2022-11-07T12:26:17.104Z,999.41
2022-11-07T12:27:17.956Z,999.39
2022-11-07T12:28:17.055Z,999.35
2022-11-07T12:29:17.045Z,999.34
2022-11-07T12:30:17.024Z,999.32
2022-11-07T12:31:17.026Z,999.33